Time;durP1;ratioP1;P1;durP2;ratioP2;P2;SDS_P1;SDS_P2;PMS_P1;PMS_P2;Temp;Humidity;BMP_temperature;BMP_pressure;BME280_temperature;BME280_humidity;BME280_pressure;Samples;Min_cycle;Max_cycle;Signal;HPM_P1;HPM_P2
2022/02/01 00:01:19;;;;;;;2.92;1.67;;;;;;;0.66;89.92;97423.88;5079274;28;20063;-62
2022/02/01 00:03:49;;;;;;;4.82;2.53;;;;;;;0.59;90.24;97428.31;5081315;28;20055;-62
2022/02/01 00:06:25;;;;;;;6.53;1.90;;;;;;;0.57;90.84;97415.16;5087881;28;20051;-63
2022/02/01 00:09:09;;;;;;;6.70;2.75;;;;;;;0.60;90.18;97411.31;5075051;28;20033;-62
2022/02/01 00:11:53;;;;;;;6.10;1.85;;;;;;;0.53;90.22;97435.19;5067818;28;20508;-62
2022/02/01 00:14:33;;;;;;;5.03;2.30;;;;;;;0.46;90.60;97427.13;5082390;28;20040;-62
2022/02/01 00:20:48;;;;;;;2.80;1.77;;;;;;;0.45;90.75;97440.63;5057366;28;20055;-62
2022/02/01 00:37:02;;;;;;;6.07;1.75;;;;;;;0.06;91.48;97482.50;5086938;28;20048;-62
2022/02/01 00:39:31;;;;;;;5.55;2.28;;;;;;;0.02;91.78;97482.03;5075275;28;20089;-62
2022/02/01 00:41:58;;;;;;;3.17;1.95;;;;;;;0.11;90.97;97482.78;5084803;28;20040;-63
2022/02/01 00:44:25;;;;;;;6.28;1.88;;;;;;;0.19;90.93;97484.53;5084455;28;20043;-63
2022/02/01 00:46:52;;;;;;;5.38;1.70;;;;;;;0.20;91.01;97475.53;5085972;28;20059;-62
2022/02/01 00:49:18;;;;;;;5.03;2.45;;;;;;;0.18;91.20;97491.69;5084344;28;20059;-63
2022/02/01 00:51:45;;;;;;;10.50;3.50;;;;;;;0.22;91.20;97494.84;5065819;28;20048;-63
2022/02/01 00:54:12;;;;;;;6.97;2.50;;;;;;;0.35;90.99;97492.34;5080763;28;20044;-63
2022/02/01 00:56:38;;;;;;;4.68;1.58;;;;;;;0.46;90.45;97500.88;5083918;28;20040;-63
2022/02/01 00:59:05;;;;;;;4.93;2.35;;;;;;;0.42;89.98;97513.75;5085630;28;20055;-63
2022/02/01 01:01:31;;;;;;;7.22;2.25;;;;;;;0.44;90.18;97514.38;5086526;28;20598;-63
2022/02/01 01:03:58;;;;;;;2.72;1.30;;;;;;;0.57;90.08;97515.59;5071719;28;20044;-63
2022/02/01 01:06:25;;;;;;;14.82;2.88;;;;;;;0.64;89.63;97517.34;5075474;28;20048;-61
2022/02/01 01:08:52;;;;;;;8.77;2.10;;;;;;;0.72;88.99;97531.56;5082392;28;20055;-60
2022/02/01 01:11:18;;;;;;;3.38;1.38;;;;;;;0.79;89.41;97535.16;5072179;28;20040;-63
2022/02/01 01:38:43;;;;;;;9.00;2.28;;;;;;;0.87;89.02;97531.56;5089695;28;20058;-62
2022/02/01 01:43:51;;;;;;;5.63;1.60;;;;;;;0.85;89.01;97571.72;5074896;28;20044;-63
2022/02/01 01:54:16;;;;;;;5.95;1.88;;;;;;;0.85;89.00;97579.72;5085254;28;20040;-63
2022/02/01 01:56:42;;;;;;;10.27;2.05;;;;;;;0.83;89.13;97580.94;5077822;28;20058;-63
2022/02/01 01:59:10;;;;;;;6.00;1.65;;;;;;;0.82;88.99;97589.94;5091604;28;20044;-62
2022/02/01 02:01:40;;;;;;;9.02;2.13;;;;;;;0.78;89.91;97589.50;5094472;28;20539;-63
2022/02/01 02:04:08;;;;;;;7.95;1.35;;;;;;;0.76;89.31;97596.84;5079313;28;20048;-63
2022/02/01 02:06:37;;;;;;;2.80;1.35;;;;;;;0.77;89.32;97601.13;5085058;28;20408;-62
2022/02/01 02:09:06;;;;;;;9.35;2.47;;;;;;;0.77;89.82;97591.31;5085594;28;20101;-62
2022/02/01 02:11:58;;;;;;;7.32;1.70;;;;;;;0.76;89.02;97575.50;5085191;28;20040;-63
2022/02/01 02:14:28;;;;;;;9.85;2.20;;;;;;;0.67;89.91;97573.94;5083936;28;20067;-62
2022/02/01 02:16:58;;;;;;;5.28;1.60;;;;;;;0.61;89.59;97571.00;5083690;28;20052;-63
2022/02/01 02:19:28;;;;;;;5.03;1.52;;;;;;;0.62;90.21;97578.00;5085376;28;20044;-63
2022/02/01 02:22:00;;;;;;;4.00;1.52;;;;;;;0.57;89.86;97583.03;5074413;28;20041;-62
2022/02/01 02:24:35;;;;;;;6.65;2.17;;;;;;;0.64;89.95;97591.97;5083063;28;20040;-60
2022/02/01 02:27:02;;;;;;;10.48;2.03;;;;;;;0.64;89.45;97605.28;5081030;28;20074;-62
2022/02/01 02:29:29;;;;;;;9.30;2.17;;;;;;;0.72;89.30;97596.38;5067098;28;20036;-63
2022/02/01 02:31:57;;;;;;;5.57;1.70;;;;;;;0.70;89.59;97610.91;5077773;28;20506;-63
2022/02/01 02:34:24;;;;;;;9.65;2.58;;;;;;;0.69;89.58;97615.41;5065315;28;20572;-63
2022/02/01 02:37:16;;;;;;;7.72;2.38;;;;;;;0.70;89.29;97614.38;5092329;28;20081;-63
2022/02/01 02:40:03;;;;;;;11.52;2.20;;;;;;;0.74;88.17;97628.19;5065054;28;20048;-63
2022/02/01 02:45:04;;;;;;;17.58;3.45;;;;;;;0.72;88.80;97635.53;5071627;28;20466;-62
2022/02/01 02:45:16;;;;;;;9.63;2.05;;;;;;;0.76;88.59;97628.81;5078883;28;20044;-63
2022/02/01 02:47:42;;;;;;;8.98;2.95;;;;;;;0.73;88.21;97655.81;5072993;28;20048;-63
2022/02/01 02:50:09;;;;;;;8.90;2.03;;;;;;;0.70;88.69;97651.69;5076789;28;20051;-62
2022/02/01 02:52:37;;;;;;;11.75;1.98;;;;;;;0.61;88.26;97644.78;5079584;28;20070;-62
2022/02/01 02:55:04;;;;;;;8.23;2.00;;;;;;;0.52;88.36;97652.06;5084583;28;20044;-63
2022/02/01 02:57:30;;;;;;;12.98;2.08;;;;;;;0.52;88.26;97658.19;5079932;28;20044;-63
2022/02/01 02:59:57;;;;;;;12.13;2.53;;;;;;;0.52;87.87;97665.38;5083921;28;20637;-63
2022/02/01 03:02:24;;;;;;;11.32;2.03;;;;;;;0.61;87.68;97660.78;5077899;28;20578;-63
2022/02/01 03:04:50;;;;;;;13.75;2.05;;;;;;;0.64;86.66;97644.44;5080719;28;20048;-63
2022/02/01 03:07:17;;;;;;;12.25;2.35;;;;;;;0.64;87.19;97642.63;5077753;28;20086;-62
2022/02/01 03:09:44;;;;;;;5.97;1.35;;;;;;;0.69;86.92;97646.53;5064658;28;20452;-62
2022/02/01 03:12:17;;;;;;;2.13;1.02;;;;;;;0.77;86.36;97652.63;5076232;28;20036;-63
2022/02/01 03:14:52;;;;;;;8.77;2.13;;;;;;;0.70;86.78;97642.88;5083925;28;20108;-63
2022/02/01 03:19:53;;;;;;;8.75;1.98;;;;;;;0.69;86.91;97647.38;5086863;28;20534;-63
2022/02/01 03:22:23;;;;;;;10.52;2.13;;;;;;;0.74;87.04;97650.31;5077229;28;20115;-62
2022/02/01 03:24:51;;;;;;;9.80;2.92;;;;;;;0.67;87.43;97649.41;5083773;28;20046;-63
2022/02/01 03:27:19;;;;;;;8.57;2.05;;;;;;;0.61;87.75;97648.28;5077609;28;20500;-61
2022/02/01 03:29:48;;;;;;;6.55;1.75;;;;;;;0.69;87.25;97670.53;5081071;28;20048;-63
2022/02/01 03:32:15;;;;;;;10.48;2.78;;;;;;;0.70;87.35;97666.88;5081661;28;20115;-63
2022/02/01 03:34:43;;;;;;;7.10;1.65;;;;;;;0.64;88.39;97674.59;5087829;28;20146;-63
2022/02/01 03:37:09;;;;;;;8.23;2.08;;;;;;;0.63;88.44;97664.91;5087131;28;20062;-63
2022/02/01 03:39:36;;;;;;;6.75;2.15;;;;;;;0.62;88.41;97668.59;5086174;28;20051;-63
2022/02/01 03:42:03;;;;;;;6.13;2.17;;;;;;;0.64;88.04;97673.75;5087806;28;20032;-63
2022/02/01 03:44:32;;;;;;;5.93;1.13;;;;;;;0.67;87.60;97684.06;5087392;28;20702;-63
2022/02/01 03:47:02;;;;;;;5.18;1.73;;;;;;;0.67;87.59;97685.88;5084136;28;20047;-63
2022/02/01 03:49:35;;;;;;;7.78;1.73;;;;;;;0.68;87.33;97688.38;5081991;28;20043;-63
2022/02/01 03:52:04;;;;;;;5.75;1.40;;;;;;;0.72;86.87;97680.84;5087791;28;20036;-63
2022/02/01 03:54:32;;;;;;;7.78;1.50;;;;;;;0.74;86.91;97686.81;5079602;28;20082;-62
2022/02/01 03:57:00;;;;;;;11.25;1.85;;;;;;;0.76;85.92;97679.47;5086818;28;20055;-63
2022/02/01 03:59:27;;;;;;;11.25;1.83;;;;;;;0.73;86.54;97693.16;5093383;28;20044;-63
2022/02/01 04:01:55;;;;;;;7.25;1.45;;;;;;;0.77;86.51;97694.44;5100794;28;20036;-63
2022/02/01 04:04:28;;;;;;;4.30;1.30;;;;;;;0.66;86.76;97690.38;5076559;28;20072;-63
2022/02/01 04:06:56;;;;;;;4.65;1.42;;;;;;;0.68;87.36;97703.53;5067737;28;20040;-63
2022/02/01 04:09:23;;;;;;;8.80;1.75;;;;;;;0.63;87.01;97712.88;5086656;28;20077;-62
2022/02/01 04:11:53;;;;;;;5.82;1.35;;;;;;;0.66;85.89;97721.53;5070431;28;20435;-62
2022/02/01 04:14:23;;;;;;;5.95;1.20;;;;;;;0.69;85.81;97737.16;5077766;28;20051;-62
2022/02/01 04:16:50;;;;;;;12.38;2.58;;;;;;;0.64;84.56;97724.38;5086319;28;20063;-62
2022/02/01 04:19:17;;;;;;;12.32;1.85;;;;;;;0.60;85.41;97725.75;5087106;28;20403;-62
2022/02/01 04:21:54;;;;;;;8.15;1.58;;;;;;;0.57;85.25;97724.28;5086453;28;20708;-63
2022/02/01 04:24:21;;;;;;;8.18;2.13;;;;;;;0.56;84.50;97724.44;5086191;28;20058;-63
2022/02/01 04:26:47;;;;;;;13.38;2.55;;;;;;;0.53;84.52;97725.66;5087394;28;20040;-63
2022/02/01 04:29:14;;;;;;;12.07;1.90;;;;;;;0.52;83.85;97740.78;5075686;28;20517;-67
2022/02/01 04:31:41;;;;;;;12.60;1.67;;;;;;;0.48;85.06;97747.47;5071741;28;20036;-67
2022/02/01 04:34:08;;;;;;;6.90;1.92;;;;;;;0.54;84.27;97763.75;5076046;28;20068;-68
2022/02/01 04:36:35;;;;;;;11.95;2.20;;;;;;;0.44;84.74;97764.81;5085644;28;20521;-67
2022/02/01 04:39:03;;;;;;;10.60;1.88;;;;;;;0.46;84.63;97756.66;5078469;28;20094;-67
2022/02/01 04:41:31;;;;;;;7.38;1.88;;;;;;;0.46;84.79;97762.00;5072587;28;20044;-67
2022/02/01 04:43:58;;;;;;;9.27;1.88;;;;;;;0.43;84.80;97749.84;5078269;28;20454;-67
2022/02/01 04:46:27;;;;;;;10.95;1.30;;;;;;;0.40;84.80;97750.19;5066925;28;20052;-67
2022/02/01 04:48:58;;;;;;;13.52;2.45;;;;;;;0.39;83.44;97745.88;5083878;28;20634;-67
2022/02/01 04:51:25;;;;;;;18.50;3.53;;;;;;;0.39;84.27;97743.22;5086668;28;20044;-67
2022/02/01 04:53:52;;;;;;;7.15;2.20;;;;;;;0.38;82.93;97745.03;5073594;28;20040;-67
2022/02/01 04:56:19;;;;;;;6.53;1.30;;;;;;;0.40;82.91;97739.53;5066419;28;20636;-67
2022/02/01 04:58:45;;;;;;;11.48;1.83;;;;;;;0.34;82.94;97751.72;5080732;28;20052;-67
2022/02/01 05:01:13;;;;;;;6.90;1.95;;;;;;;0.29;82.96;97764.75;5066984;28;20730;-68
2022/02/01 05:03:41;;;;;;;7.38;2.33;;;;;;;0.37;81.96;97762.03;5074395;28;20036;-66
2022/02/01 05:06:08;;;;;;;10.75;1.77;;;;;;;0.33;81.71;97775.91;5085700;28;20058;-67
2022/02/01 05:08:35;;;;;;;9.35;1.50;;;;;;;0.34;80.14;97773.03;5068384;28;20048;-66
2022/02/01 05:11:01;;;;;;;14.75;2.13;;;;;;;0.42;80.30;97780.19;5075826;28;20108;-66
2022/02/01 05:16:05;;;;;;;6.80;1.27;;;;;;;0.35;81.59;97784.53;5067861;28;20098;-67
2022/02/01 05:18:37;;;;;;;8.70;1.88;;;;;;;0.31;80.24;97777.91;5084742;28;20368;-67
2022/02/01 05:21:14;;;;;;;7.40;1.35;;;;;;;0.35;80.07;97787.19;5085699;28;20607;-67
2022/02/01 05:23:42;;;;;;;13.43;2.03;;;;;;;0.29;80.82;97794.06;5073477;28;20036;-68
2022/02/01 05:26:08;;;;;;;11.88;2.28;;;;;;;0.30;80.67;97801.06;5076359;28;20604;-66
2022/02/01 05:28:37;;;;;;;13.25;2.28;;;;;;;0.28;80.50;97803.06;5066107;28;20091;-68
2022/02/01 05:31:05;;;;;;;10.25;1.52;;;;;;;0.27;80.98;97804.06;5076059;28;20050;-67
2022/02/01 05:33:32;;;;;;;6.60;1.42;;;;;;;0.28;81.02;97812.88;5082699;28;20420;-67
2022/02/01 05:36:00;;;;;;;8.70;1.67;;;;;;;0.26;80.82;97818.41;5081096;28;20123;-67
2022/02/01 05:38:27;;;;;;;11.90;2.50;;;;;;;0.25;80.56;97806.06;5082046;28;20121;-67
2022/02/01 05:40:54;;;;;;;12.05;2.55;;;;;;;0.19;81.26;97796.13;5065769;28;20126;-66
2022/02/01 05:43:26;;;;;;;13.57;1.50;;;;;;;0.25;80.51;97809.56;5069104;28;20035;-67
2022/02/01 05:45:56;;;;;;;10.80;2.33;;;;;;;0.18;81.09;97821.09;5086758;28;20725;-68
2022/02/01 05:48:24;;;;;;;7.60;1.85;;;;;;;0.10;81.11;97825.47;5067511;28;20064;-66
2022/02/01 05:50:54;;;;;;;8.25;1.95;;;;;;;0.21;81.00;97815.41;5085064;28;20081;-68
2022/02/01 05:53:21;;;;;;;8.68;1.77;;;;;;;0.14;80.84;97807.28;5083568;28;20029;-66
2022/02/01 05:55:49;;;;;;;5.93;1.70;;;;;;;0.14;81.24;97801.16;5078396;28;20044;-67
2022/02/01 05:58:17;;;;;;;3.70;1.00;;;;;;;0.13;81.14;97805.63;5084272;28;20454;-67
2022/02/01 06:00:44;;;;;;;5.88;1.45;;;;;;;0.11;81.42;97802.34;5083597;28;20453;-68
2022/02/01 06:03:11;;;;;;;10.38;2.85;;;;;;;0.07;81.71;97809.00;5077602;28;20062;-69
2022/02/01 06:05:38;;;;;;;8.82;2.35;;;;;;;0.03;81.74;97802.38;5085177;28;20054;-67
2022/02/01 06:08:04;;;;;;;18.58;3.40;;;;;;;-0.03;82.02;97810.03;5092196;28;20105;-67
2022/02/01 06:10:31;;;;;;;6.65;1.92;;;;;;;-0.03;81.35;97807.34;5082514;28;20040;-67
2022/02/01 06:12:57;;;;;;;14.48;2.40;;;;;;;-0.02;81.29;97802.88;5083897;28;20101;-67
2022/02/01 06:15:28;;;;;;;6.78;1.60;;;;;;;-0.07;80.76;97811.38;5087714;28;20227;-67
2022/02/01 06:17:55;;;;;;;5.85;1.00;;;;;;;-0.06;81.46;97817.53;5085849;28;20050;-67
2022/02/01 06:20:22;;;;;;;13.00;1.65;;;;;;;-0.07;81.47;97818.53;5082084;28;20052;-67
2022/02/01 06:22:48;;;;;;;7.18;1.45;;;;;;;0.02;80.97;97838.81;5082580;28;20048;-68
2022/02/01 06:25:18;;;;;;;9.70;1.45;;;;;;;-0.06;81.33;97836.16;5075519;28;20040;-67
2022/02/01 06:27:45;;;;;;;9.20;1.40;;;;;;;-0.06;81.93;97823.69;5082486;28;20105;-68
2022/02/01 06:30:11;;;;;;;10.40;2.00;;;;;;;-0.05;81.34;97822.69;5083121;28;20101;-66
2022/02/01 06:32:39;;;;;;;11.77;1.70;;;;;;;-0.05;80.87;97830.69;5083277;28;20036;-67
2022/02/01 06:35:08;;;;;;;11.07;2.50;;;;;;;0.09;80.55;97830.94;5075559;28;20040;-66
2022/02/01 06:37:36;;;;;;;8.68;1.77;;;;;;;0.05;80.05;97822.50;5077110;28;20072;-67
2022/02/01 06:40:03;;;;;;;11.13;2.20;;;;;;;0.09;79.75;97841.59;5090681;28;20088;-67
2022/02/01 06:42:31;;;;;;;7.18;1.92;;;;;;;0.00;79.62;97851.47;5082875;28;20048;-67
2022/02/01 06:44:58;;;;;;;8.95;2.10;;;;;;;0.00;79.90;97846.16;5080259;28;20044;-66
2022/02/01 06:47:24;;;;;;;5.85;1.00;;;;;;;0.10;78.75;97857.41;5078809;28;20093;-66
2022/02/01 06:49:51;;;;;;;18.60;1.92;;;;;;;0.15;78.54;97851.59;5092508;28;20047;-66
2022/02/01 06:52:18;;;;;;;10.35;2.38;;;;;;;0.11;78.65;97856.41;5076126;28;20047;-68
2022/02/01 06:54:44;;;;;;;7.75;1.63;;;;;;;0.16;77.84;97855.06;5098647;28;20078;-67
2022/02/01 06:57:11;;;;;;;9.48;1.90;;;;;;;0.02;78.93;97862.75;5086061;28;20048;-66
2022/02/01 06:59:37;;;;;;;5.15;1.67;;;;;;;0.10;79.23;97868.06;5090160;28;20636;-67
2022/02/01 07:02:04;;;;;;;6.88;1.58;;;;;;;0.18;78.20;97869.03;5087395;28;20051;-66
2022/02/01 07:04:36;;;;;;;10.18;1.50;;;;;;;-0.04;78.94;97887.44;5082586;28;20074;-67
2022/02/01 07:07:03;;;;;;;8.93;2.40;;;;;;;0.06;77.76;97893.38;5086389;28;20040;-67
2022/02/01 07:09:32;;;;;;;6.43;1.48;;;;;;;0.08;78.74;97907.34;5084508;28;20040;-66
2022/02/01 07:11:59;;;;;;;10.13;1.67;;;;;;;0.19;78.19;97907.97;5084316;28;20047;-66
2022/02/01 07:14:26;;;;;;;7.43;1.40;;;;;;;0.23;76.80;97915.44;5085375;28;20051;-66
2022/02/01 07:16:52;;;;;;;3.17;0.90;;;;;;;0.25;77.58;97917.94;5085819;28;20510;-67
2022/02/01 07:19:19;;;;;;;11.65;3.25;;;;;;;0.19;78.41;97897.31;5084961;28;20139;-66
2022/02/01 07:21:48;;;;;;;26.35;8.32;;;;;;;0.17;78.87;97883.34;5084648;28;20052;-68
2022/02/01 07:24:17;;;;;;;6.78;1.95;;;;;;;0.11;78.22;97891.03;5083464;28;20040;-67
2022/02/01 07:26:54;;;;;;;11.52;1.83;;;;;;;0.12;78.55;97897.19;5085813;28;20051;-66
2022/02/01 07:29:21;;;;;;;8.50;1.83;;;;;;;0.08;78.38;97893.22;5091345;28;20089;-67
2022/02/01 07:31:47;;;;;;;4.85;1.40;;;;;;;0.07;78.37;97887.03;5080540;28;20515;-67
2022/02/01 07:34:15;;;;;;;13.02;3.70;;;;;;;0.08;79.06;97887.88;5076762;28;20059;-66
2022/02/01 07:36:42;;;;;;;9.35;2.05;;;;;;;0.09;78.79;97868.22;5087187;28;20036;-67
2022/02/01 07:39:10;;;;;;;2.65;1.40;;;;;;;0.20;78.38;97867.03;5083428;28;20066;-67
2022/02/01 07:41:37;;;;;;;6.70;1.02;;;;;;;0.31;77.47;97871.13;5069001;28;20555;-67
2022/02/01 07:44:05;;;;;;;5.53;1.40;;;;;;;0.28;77.63;97879.47;5086147;28;20029;-66
2022/02/01 07:46:32;;;;;;;4.22;1.40;;;;;;;0.29;78.62;97887.28;5088149;28;20113;-67
2022/02/01 07:48:59;;;;;;;5.88;1.83;;;;;;;0.28;78.47;97874.97;5085461;28;20141;-67
2022/02/01 07:51:25;;;;;;;7.90;2.58;;;;;;;0.18;79.31;97869.84;5073993;28;20098;-67
2022/02/01 07:53:52;;;;;;;5.95;1.88;;;;;;;0.22;78.96;97863.19;5084814;28;20673;-65
2022/02/01 07:56:19;;;;;;;5.32;1.50;;;;;;;0.35;78.53;97865.31;5082280;28;20047;-59
2022/02/01 07:58:45;;;;;;;6.55;1.60;;;;;;;0.48;79.24;97869.25;5090201;28;20077;-55
2022/02/01 08:01:12;;;;;;;9.60;1.73;;;;;;;0.49;79.38;97874.41;5085071;28;20603;-59
2022/02/01 08:03:38;;;;;;;8.90;2.15;;;;;;;0.43;79.01;97861.75;5071236;28;20041;-58
2022/02/01 08:06:05;;;;;;;10.88;2.05;;;;;;;0.46;78.65;97876.56;5084082;28;20107;-58
2022/02/01 08:08:32;;;;;;;4.72;1.65;;;;;;;0.73;78.11;97874.41;5077019;28;20439;-56
2022/02/01 08:11:00;;;;;;;6.47;1.60;;;;;;;0.73;77.23;97866.41;5081397;28;20118;-57
2022/02/01 08:16:36;;;;;;;10.82;1.73;;;;;;;0.79;77.79;97865.72;5078906;28;20052;-53
2022/02/01 08:19:13;;;;;;;7.75;2.25;;;;;;;0.79;77.65;97860.38;5083561;28;20066;-53
2022/02/01 08:21:52;;;;;;;6.93;1.95;;;;;;;0.75;77.13;97888.41;5081632;28;20524;-68
2022/02/01 08:24:19;;;;;;;11.38;2.60;;;;;;;0.73;77.90;97893.91;5078309;28;20052;-68
2022/02/01 08:26:46;;;;;;;4.50;1.23;;;;;;;0.78;77.88;97888.06;5076099;28;20040;-67
2022/02/01 08:29:15;;;;;;;3.85;1.65;;;;;;;0.82;78.22;97883.19;5074022;28;20048;-65
2022/02/01 08:31:47;;;;;;;8.25;2.70;;;;;;;0.90;76.63;97891.97;5097533;28;20044;-66
2022/02/01 08:34:14;;;;;;;6.32;1.60;;;;;;;0.91;76.98;97903.47;5094502;28;20537;-68
2022/02/01 08:36:41;;;;;;;11.98;3.10;;;;;;;0.82;78.00;97910.69;5076934;28;20467;-68
2022/02/01 08:39:08;;;;;;;8.27;1.75;;;;;;;0.88;77.28;97914.47;5079482;28;20047;-68
2022/02/01 08:41:35;;;;;;;6.55;1.73;;;;;;;0.84;76.80;97913.16;5083954;28;20051;-71
2022/02/01 08:44:03;;;;;;;10.75;1.63;;;;;;;0.98;77.83;97892.91;5086318;28;20035;-67
2022/02/01 08:46:29;;;;;;;3.20;1.60;;;;;;;1.03;76.07;97912.72;5098848;28;20048;-68
2022/02/01 08:48:56;;;;;;;6.28;1.67;;;;;;;1.16;75.74;97908.63;5096206;28;20062;-68
2022/02/01 08:51:25;;;;;;;5.20;1.13;;;;;;;1.10;76.04;97896.81;5070517;28;20170;-68
2022/02/01 08:53:57;;;;;;;3.00;1.02;;;;;;;1.15;76.89;97901.63;5078318;28;20039;-68
2022/02/01 08:59:27;;;;;;;10.02;1.77;;;;;;;1.11;76.67;97897.66;5076651;28;20302;-66
2022/02/01 09:01:54;;;;;;;4.00;1.40;;;;;;;1.28;76.04;97901.88;5074224;28;20048;-74
2022/02/01 09:04:22;;;;;;;9.60;1.73;;;;;;;1.22;76.97;97904.44;5086296;28;20415;-68
2022/02/01 09:06:49;;;;;;;6.15;1.45;;;;;;;1.26;75.74;97903.06;5085957;28;20047;-69
2022/02/01 09:09:17;;;;;;;5.85;1.63;;;;;;;1.28;77.05;97893.88;5080392;28;20074;-68
2022/02/01 09:11:45;;;;;;;7.68;1.60;;;;;;;1.28;77.05;97891.19;5080958;28;20036;-66
2022/02/01 09:14:11;;;;;;;7.28;1.30;;;;;;;1.33;76.41;97890.66;5083203;28;20581;-67
2022/02/01 09:16:38;;;;;;;8.10;1.67;;;;;;;1.35;76.39;97893.13;5083562;28;20135;-67
2022/02/01 09:19:05;;;;;;;3.63;1.20;;;;;;;1.43;75.47;97898.41;5082444;28;20075;-68
2022/02/01 09:21:32;;;;;;;3.88;1.30;;;;;;;1.47;75.46;97888.22;5086246;28;20321;-67
2022/02/01 09:23:58;;;;;;;5.30;1.65;;;;;;;1.36;76.18;97882.28;5097799;28;20106;-67
2022/02/01 09:26:25;;;;;;;6.80;1.55;;;;;;;1.58;75.61;97879.75;5082542;28;20096;-68
2022/02/01 09:29:11;;;;;;;11.13;1.83;;;;;;;1.52;75.78;97873.28;5097459;28;20048;-68
2022/02/01 09:31:38;;;;;;;9.13;1.25;;;;;;;1.62;76.12;97880.25;5092471;28;20101;-67
2022/02/01 09:34:06;;;;;;;3.20;0.63;;;;;;;1.73;74.42;97898.47;5071662;28;20044;-68
2022/02/01 09:36:33;;;;;;;7.75;1.08;;;;;;;1.61;75.76;97884.75;5079735;28;20041;-71
2022/02/01 09:38:59;;;;;;;5.03;1.10;;;;;;;1.64;75.14;97872.88;5065462;28;20427;-64
2022/02/01 09:41:28;;;;;;;6.63;1.60;;;;;;;1.66;75.85;97862.84;5067595;28;20044;-67
2022/02/01 09:43:55;;;;;;;5.70;1.15;;;;;;;1.72;74.61;97855.94;5086142;28;20073;-64
2022/02/01 09:46:22;;;;;;;5.80;1.40;;;;;;;1.63;74.97;97856.03;5086480;28;20040;-70
2022/02/01 09:48:49;;;;;;;6.85;1.58;;;;;;;1.72;74.50;97847.91;5074790;28;20036;-67
2022/02/01 09:51:16;;;;;;;4.25;1.35;;;;;;;1.78;75.50;97858.72;5084853;28;20511;-68
2022/02/01 09:53:43;;;;;;;8.90;1.48;;;;;;;1.80;73.13;97848.66;5085422;28;20040;-69
2022/02/01 09:56:10;;;;;;;2.53;1.00;;;;;;;1.68;74.42;97858.13;5084336;28;20059;-67
2022/02/01 09:58:38;;;;;;;6.80;1.27;;;;;;;1.66;73.88;97861.00;5072696;28;20052;-67
2022/02/01 10:01:22;;;;;;;6.95;1.63;;;;;;;1.90;74.19;97861.75;5093103;28;20051;-65
2022/02/01 10:04:07;;;;;;;7.80;1.63;;;;;;;2.01;74.49;97863.13;5071014;28;20052;-66
2022/02/01 10:06:41;;;;;;;3.28;1.45;;;;;;;2.04;73.32;97875.28;5081848;28;20044;-65
2022/02/01 10:09:28;;;;;;;4.18;1.58;;;;;;;2.02;73.58;97880.81;5086027;28;20096;-67
2022/02/01 10:11:54;;;;;;;4.15;1.45;;;;;;;2.05;72.55;97879.59;5084218;28;20048;-72
2022/02/01 10:14:28;;;;;;;4.93;1.00;;;;;;;2.08;73.21;97876.56;5082753;28;20491;-69
2022/02/01 10:16:58;;;;;;;5.85;1.15;;;;;;;2.23;72.73;97873.91;5076467;28;20056;-70
2022/02/01 10:19:25;;;;;;;12.52;1.48;;;;;;;2.20;71.25;97856.41;5094974;28;20044;-68
2022/02/01 10:22:00;;;;;;;5.13;1.45;;;;;;;2.20;72.45;97850.22;5067695;28;20041;-66
2022/02/01 10:24:32;;;;;;;11.48;1.65;;;;;;;2.18;70.62;97861.09;5085276;28;20570;-68
2022/02/01 10:27:20;;;;;;;6.03;1.50;;;;;;;2.26;71.53;97872.69;5087761;28;20052;-68
2022/02/01 10:30:17;;;;;;;5.57;1.30;;;;;;;2.02;71.61;97859.44;5070261;28;20048;-67
2022/02/01 10:38:04;;;;;;;4.15;0.70;;;;;;;2.15;68.46;97840.09;5091485;28;20418;-68
2022/02/01 10:40:45;;;;;;;7.13;1.25;;;;;;;2.30;70.00;97844.59;5081775;28;20588;-68
2022/02/01 10:43:32;;;;;;;6.07;0.82;;;;;;;2.36;68.64;97843.81;5085895;28;20593;-67
2022/02/01 10:46:15;;;;;;;3.90;0.63;;;;;;;2.53;68.01;97836.44;5085190;28;20055;-68
2022/02/01 10:48:47;;;;;;;6.80;1.48;;;;;;;2.50;68.26;97847.50;5085018;28;20127;-67
2022/02/01 10:51:16;;;;;;;6.38;1.30;;;;;;;2.47;68.64;97839.88;5086646;28;20415;-67
2022/02/01 10:53:44;;;;;;;5.32;1.10;;;;;;;2.37;68.81;97836.66;5084040;28;20125;-69
2022/02/01 10:56:14;;;;;;;2.40;1.10;;;;;;;2.38;69.16;97849.00;5088868;28;20734;-69
2022/02/01 10:58:41;;;;;;;2.50;0.80;;;;;;;2.25;68.51;97850.47;5085583;28;20048;-69
2022/02/01 11:01:10;;;;;;;7.20;1.83;;;;;;;2.21;67.99;97850.03;5099920;28;20040;-67
2022/02/01 11:03:46;;;;;;;2.92;1.35;;;;;;;2.14;68.96;97845.63;5080032;28;20704;-69
2022/02/01 11:06:13;;;;;;;5.13;1.98;;;;;;;2.05;68.71;97836.88;5080785;28;20054;-67
2022/02/01 11:08:42;;;;;;;10.73;2.38;;;;;;;1.98;69.10;97798.59;5078630;28;20420;-67
2022/02/01 11:11:20;;;;;;;4.38;0.98;;;;;;;2.13;68.99;97801.22;5098429;28;20044;-67
2022/02/01 11:13:49;;;;;;;3.30;1.17;;;;;;;2.15;68.58;97792.00;5088364;28;20052;-67
2022/02/01 11:16:25;;;;;;;3.05;0.77;;;;;;;2.20;69.47;97776.25;5078819;28;20040;-68
2022/02/01 11:19:05;;;;;;;11.90;1.88;;;;;;;2.04;69.94;97752.41;5090906;28;20047;-69
2022/02/01 11:21:53;;;;;;;4.20;1.15;;;;;;;2.17;70.90;97760.59;5086282;28;20506;-70
2022/02/01 11:24:38;;;;;;;7.85;1.40;;;;;;;2.18;70.27;97748.06;5085082;28;20047;-69
2022/02/01 11:27:26;;;;;;;3.45;1.00;;;;;;;2.16;69.69;97745.56;5082314;28;20053;-68
2022/02/01 11:32:34;;;;;;;1.77;0.57;;;;;;;2.05;70.42;97736.22;5079353;28;20047;-67
2022/02/01 11:35:12;;;;;;;6.15;1.17;;;;;;;2.04;70.79;97725.69;5083083;28;20036;-71
2022/02/01 11:38:04;;;;;;;2.25;0.70;;;;;;;2.12;71.20;97728.25;5077709;28;20126;-68
2022/02/01 11:40:46;;;;;;;2.65;0.65;;;;;;;2.32;72.40;97719.66;5085254;28;20533;-71
2022/02/01 11:43:35;;;;;;;4.15;1.30;;;;;;;2.01;73.69;97710.03;5073483;28;20172;-70
2022/02/01 11:46:08;;;;;;;6.03;1.42;;;;;;;1.91;73.46;97697.00;5085251;28;20358;-71
2022/02/01 11:48:49;;;;;;;8.88;1.38;;;;;;;1.67;73.72;97690.97;5076051;28;20040;-67
2022/02/01 11:51:16;;;;;;;2.33;0.68;;;;;;;1.90;72.83;97698.00;5068300;28;20063;-68
2022/02/01 11:53:44;;;;;;;1.95;1.00;;;;;;;1.90;72.65;97673.97;5085614;28;20048;-69
2022/02/01 11:56:13;;;;;;;2.45;0.88;;;;;;;1.91;73.30;97670.28;5086995;28;20040;-70
2022/02/01 11:58:46;;;;;;;6.70;1.77;;;;;;;2.14;71.87;97656.75;5089962;28;20710;-69
2022/02/01 12:01:25;;;;;;;2.90;0.70;;;;;;;2.39;72.10;97645.69;5104421;28;20048;-71
2022/02/01 12:04:05;;;;;;;4.45;0.82;;;;;;;2.77;70.71;97627.69;5083057;28;20037;-68
2022/02/01 12:07:05;;;;;;;6.07;1.65;;;;;;;2.56;73.28;97614.16;5085473;28;20448;-69
2022/02/01 12:09:32;;;;;;;4.70;1.17;;;;;;;2.41;71.80;97613.41;5082824;28;20047;-67
2022/02/01 12:12:00;;;;;;;2.20;0.85;;;;;;;2.53;71.92;97597.69;5079732;28;20048;-70
2022/02/01 12:14:28;;;;;;;1.40;0.75;;;;;;;2.55;71.54;97606.34;5070788;28;20032;-72
2022/02/01 12:16:57;;;;;;;1.98;0.70;;;;;;;2.63;71.77;97606.19;5079533;28;20426;-70
2022/02/01 12:19:50;;;;;;;1.48;0.52;;;;;;;2.51;72.31;97592.53;5083662;28;20112;-68
2022/02/01 12:23:04;;;;;;;3.22;1.00;;;;;;;2.19;71.18;97590.25;5078818;28;20574;-68
2022/02/01 12:25:32;;;;;;;1.90;0.80;;;;;;;2.22;70.49;97591.69;5074703;28;20100;-68
2022/02/01 12:27:59;;;;;;;4.10;0.90;;;;;;;2.34;70.95;97583.97;5084737;28;20067;-69
2022/02/01 12:30:26;;;;;;;1.05;0.60;;;;;;;2.49;70.17;97577.69;5093743;28;20039;-69
2022/02/01 12:32:56;;;;;;;3.53;0.95;;;;;;;2.33;71.03;97564.44;5086816;28;20075;-67
2022/02/01 12:35:34;;;;;;;3.53;1.13;;;;;;;2.30;70.97;97550.66;5092650;28;20047;-69
2022/02/01 12:38:08;;;;;;;1.13;0.60;;;;;;;2.47;70.96;97552.00;5077009;28;20395;-71
2022/02/01 12:40:38;;;;;;;1.70;0.57;;;;;;;2.62;69.95;97537.72;5097333;28;20507;-68
2022/02/01 12:43:19;;;;;;;3.70;0.88;;;;;;;2.55;70.19;97534.97;5079439;28;20128;-66
2022/02/01 12:48:18;;;;;;;3.28;0.80;;;;;;;2.78;70.01;97511.66;5086056;28;20044;-69
2022/02/01 12:50:56;;;;;;;2.15;0.80;;;;;;;2.65;70.28;97523.94;5086060;28;20032;-68
2022/02/01 12:53:23;;;;;;;2.63;1.10;;;;;;;2.43;70.50;97502.63;5086823;28;20067;-68
2022/02/01 12:55:50;;;;;;;1.48;0.60;;;;;;;2.74;70.84;97497.88;5085621;28;20044;-71
2022/02/01 12:58:17;;;;;;;1.70;0.70;;;;;;;2.76;70.56;97497.69;5086886;28;20051;-71
2022/02/01 13:00:49;;;;;;;;;;;;;;;2.89;69.69;97480.84;5104226;28;20071;-68
2022/02/01 13:03:16;;;;;;;2.10;0.60;;;;;;;2.72;70.42;97471.31;5083042;28;19928;-73
2022/02/01 13:05:43;;;;;;;1.77;1.00;;;;;;;2.94;70.04;97471.19;5080451;28;20054;-71
2022/02/01 13:08:36;;;;;;;1.70;0.80;;;;;;;2.89;70.50;97462.97;5096515;28;20108;-66